Terminal Aerodrome Forecast
Issued by NWS Austin/San Antonio, TX

Home | Current Version | Previous Version | Text Only | Print | Product List | Glossary On
Versions: 1 2 3 4 5 6 7 8 9 10 11 12 13 14 15 16
562
FTUS44 KEWX 141138
TAFSAT
TAF
KSAT 141138Z 1412/1518 18007KT P6SM BKN010 BKN250
     FM141600 18013G23KT P6SM SCT030
     FM142300 15010KT P6SM FEW040 SCT250
     FM150600 17006KT 4SM BR OVC010
     FM151600 35010KT P6SM BKN015=

USA.gov is the U.S. government's official web portal to all federal, state and local government web resources and services.